createdAt,value
2018-04-19T00:00:45.164Z,0.00
2018-04-19T00:01:45.084Z,0.00
2018-04-19T00:02:45.008Z,0.00
2018-04-19T00:03:44.941Z,0.00
2018-04-19T00:04:44.859Z,0.00
2018-04-19T00:05:44.783Z,0.00
2018-04-19T00:06:44.716Z,0.00
2018-04-19T00:07:44.635Z,0.00
2018-04-19T00:08:44.559Z,0.00
2018-04-19T00:09:44.479Z,0.00
2018-04-19T00:10:44.405Z,0.00
2018-04-19T00:11:44.326Z,0.00
2018-04-19T00:12:44.257Z,0.00
2018-04-19T00:13:44.195Z,0.00
2018-04-19T00:14:44.101Z,0.00
2018-04-19T00:15:44.028Z,0.00
2018-04-19T00:16:43.950Z,0.00
2018-04-19T00:17:43.875Z,0.00
2018-04-19T00:18:43.799Z,0.00
2018-04-19T00:19:43.722Z,0.00
2018-04-19T00:20:43.745Z,0.00
2018-04-19T00:21:43.571Z,0.00
2018-04-19T00:22:43.508Z,0.00
2018-04-19T00:23:43.431Z,0.00
2018-04-19T00:24:43.345Z,0.00
2018-04-19T00:25:43.270Z,0.00
2018-04-19T00:26:43.198Z,0.00
2018-04-19T00:27:43.117Z,0.00
2018-04-19T00:28:43.051Z,0.00
2018-04-19T00:29:42.971Z,0.00
2018-04-19T00:30:42.890Z,0.00
2018-04-19T00:31:42.815Z,0.00
2018-04-19T00:32:42.740Z,0.00
2018-04-19T00:33:42.676Z,0.00
2018-04-19T00:34:42.587Z,0.00
2018-04-19T00:35:42.511Z,0.00
2018-04-19T00:36:42.458Z,0.00
2018-04-19T00:37:42.369Z,0.00
2018-04-19T00:38:42.284Z,0.00
2018-04-19T00:39:42.208Z,0.00
2018-04-19T00:40:42.140Z,0.00
2018-04-19T00:41:42.057Z,0.00
2018-04-19T00:42:41.986Z,0.00
2018-04-19T00:43:41.902Z,0.00
2018-04-19T00:44:41.829Z,0.00
2018-04-19T00:45:41.752Z,0.00
2018-04-19T00:46:41.682Z,0.00
2018-04-19T00:47:41.627Z,0.00
2018-04-19T00:48:41.526Z,0.00
2018-04-19T00:49:41.968Z,0.00
2018-04-19T00:50:41.374Z,0.00
2018-04-19T00:51:41.296Z,0.00
2018-04-19T00:52:41.243Z,0.00
2018-04-19T00:53:41.148Z,0.00
2018-04-19T00:54:41.069Z,0.00
2018-04-19T00:55:40.992Z,0.00
2018-04-19T00:56:40.916Z,0.00
2018-04-19T00:57:40.840Z,0.00
2018-04-19T00:58:40.781Z,0.00
2018-04-19T00:59:40.688Z,0.00
2018-04-19T01:00:40.610Z,0.00
2018-04-19T01:01:40.536Z,0.00
2018-04-19T01:02:40.461Z,0.00
2018-04-19T01:03:40.386Z,0.00
2018-04-19T01:04:40.324Z,0.00
2018-04-19T01:05:40.231Z,0.00
2018-04-19T01:06:40.155Z,0.00
2018-04-19T01:07:40.083Z,0.00
2018-04-19T01:08:40.002Z,0.00
2018-04-19T01:09:39.935Z,0.00
2018-04-19T01:10:39.853Z,0.00
2018-04-19T01:11:39.773Z,0.00
2018-04-19T01:12:39.696Z,0.00
2018-04-19T01:13:39.621Z,0.00
2018-04-19T01:14:39.547Z,0.00
2018-04-19T01:15:39.468Z,0.00
2018-04-19T01:16:39.391Z,0.00
2018-04-19T01:17:39.317Z,0.00
2018-04-19T01:18:39.239Z,0.00
2018-04-19T01:19:39.187Z,0.00
2018-04-19T01:20:39.091Z,0.00
2018-04-19T01:21:39.013Z,0.00
2018-04-19T01:22:38.932Z,0.00
2018-04-19T01:23:38.856Z,0.00
2018-04-19T01:24:38.784Z,0.00
2018-04-19T01:25:38.724Z,0.00
2018-04-19T01:26:38.627Z,0.00
2018-04-19T01:27:38.550Z,0.00
2018-04-19T01:28:38.477Z,0.00
2018-04-19T01:29:38.398Z,0.00
2018-04-19T01:30:38.336Z,0.00
2018-04-19T01:31:38.260Z,0.00
2018-04-19T01:32:38.168Z,0.00
2018-04-19T01:33:38.092Z,0.00
2018-04-19T01:34:38.017Z,0.00
2018-04-19T01:35:37.938Z,0.00
2018-04-19T01:36:37.864Z,0.00
2018-04-19T01:37:37.785Z,0.00
2018-04-19T01:38:37.751Z,0.00
2018-04-19T01:39:37.632Z,0.00
2018-04-19T01:40:37.557Z,0.00
2018-04-19T01:41:37.480Z,0.00
2018-04-19T01:42:37.401Z,0.00
2018-04-19T01:43:37.324Z,0.00
2018-04-19T01:44:37.247Z,0.00
2018-04-19T01:45:37.174Z,0.00
2018-04-19T01:46:37.099Z,0.00
2018-04-19T01:47:37.018Z,0.00
2018-04-19T01:48:36.948Z,0.00
2018-04-19T01:49:36.865Z,0.00
2018-04-19T01:50:36.792Z,0.00
2018-04-19T01:51:36.712Z,0.00
2018-04-19T01:52:36.635Z,0.00
2018-04-19T01:53:36.560Z,0.00
2018-04-19T01:54:36.480Z,0.00
2018-04-19T01:55:36.404Z,0.00
2018-04-19T01:56:36.329Z,0.00
2018-04-19T01:57:36.249Z,0.00
2018-04-19T01:58:36.174Z,0.00
2018-04-19T01:59:36.096Z,0.00
2018-04-19T02:00:36.021Z,0.00
2018-04-19T02:01:35.943Z,0.00
2018-04-19T02:02:35.869Z,0.00
2018-04-19T02:03:35.793Z,0.00
2018-04-19T02:04:35.712Z,0.00
2018-04-19T02:05:35.637Z,0.00
2018-04-19T02:06:35.559Z,0.00
2018-04-19T02:07:35.494Z,0.00
2018-04-19T02:08:35.403Z,0.00
2018-04-19T02:09:35.329Z,0.00
2018-04-19T02:10:35.251Z,0.00
2018-04-19T02:11:35.174Z,0.00
2018-04-19T02:12:35.096Z,0.00
2018-04-19T02:13:35.021Z,0.00
2018-04-19T02:14:34.945Z,0.00
2018-04-19T02:15:34.868Z,0.00
2018-04-19T02:16:34.789Z,0.00
2018-04-19T02:17:34.712Z,0.00
2018-04-19T02:18:34.641Z,0.00
2018-04-19T02:19:34.557Z,0.00
2018-04-19T02:20:34.480Z,0.00
2018-04-19T02:21:34.403Z,0.00
2018-04-19T02:22:34.333Z,0.00
2018-04-19T02:23:34.252Z,0.00
2018-04-19T02:24:34.183Z,0.00
2018-04-19T02:25:34.098Z,0.00
2018-04-19T02:26:34.045Z,0.00
2018-04-19T02:27:33.958Z,0.00
2018-04-19T02:28:33.865Z,0.00
2018-04-19T02:29:33.790Z,0.00
2018-04-19T02:30:33.710Z,0.00
2018-04-19T02:31:33.632Z,0.00
2018-04-19T02:32:33.554Z,0.00
2018-04-19T02:33:33.478Z,0.00
2018-04-19T02:34:33.402Z,0.00
2018-04-19T02:35:33.326Z,0.00
2018-04-19T02:36:33.247Z,0.00
2018-04-19T02:37:33.177Z,0.00
2018-04-19T02:38:33.091Z,0.00
2018-04-19T02:39:33.013Z,0.00
2018-04-19T02:40:32.938Z,0.00
2018-04-19T02:41:32.861Z,0.00
2018-04-19T02:42:32.781Z,0.00
2018-04-19T02:43:32.722Z,0.00
2018-04-19T02:44:32.635Z,0.00
2018-04-19T02:45:32.549Z,0.00
2018-04-19T02:46:32.471Z,0.00
2018-04-19T02:47:32.392Z,0.00
2018-04-19T02:48:32.331Z,0.00
2018-04-19T02:49:32.243Z,0.00
2018-04-19T02:50:32.168Z,0.00
2018-04-19T02:51:32.086Z,0.00
2018-04-19T02:52:32.007Z,0.00
2018-04-19T02:53:31.929Z,0.00
2018-04-19T02:54:31.858Z,0.00
2018-04-19T02:55:31.774Z,0.00
2018-04-19T02:56:31.696Z,0.00
2018-04-19T02:57:31.634Z,0.00
2018-04-19T02:58:31.547Z,0.00
2018-04-19T02:59:31.463Z,0.00
2018-04-19T03:00:31.394Z,0.00
2018-04-19T03:01:31.308Z,0.00
2018-04-19T03:02:31.240Z,0.00
2018-04-19T03:03:31.152Z,0.00
2018-04-19T03:04:31.076Z,0.00
2018-04-19T03:05:30.997Z,0.00
2018-04-19T03:06:30.919Z,0.00
2018-04-19T03:07:30.839Z,0.00
2018-04-19T03:08:30.764Z,0.00
2018-04-19T03:09:30.685Z,0.00
2018-04-19T03:10:30.642Z,0.00
2018-04-19T03:11:30.530Z,0.00
2018-04-19T03:12:30.503Z,0.00
2018-04-19T03:13:30.375Z,0.00
2018-04-19T03:14:30.296Z,0.00
2018-04-19T03:15:30.221Z,0.00
2018-04-19T03:16:30.143Z,0.00
2018-04-19T03:17:30.061Z,0.00
2018-04-19T03:18:29.987Z,0.00
2018-04-19T03:19:29.910Z,0.00
2018-04-19T03:20:29.901Z,0.00
2018-04-19T03:21:29.753Z,0.00
2018-04-19T03:22:29.676Z,0.00
2018-04-19T03:23:29.597Z,0.00
2018-04-19T03:24:29.520Z,0.00
2018-04-19T03:25:29.442Z,0.00
2018-04-19T03:26:29.368Z,0.00
2018-04-19T03:27:29.286Z,0.00
2018-04-19T03:28:29.208Z,0.00
2018-04-19T03:29:29.132Z,0.00
2018-04-19T03:30:29.062Z,0.00
2018-04-19T03:31:28.986Z,0.00
2018-04-19T03:32:28.898Z,0.00
2018-04-19T03:33:28.821Z,0.00
2018-04-19T03:34:28.746Z,0.00
2018-04-19T03:35:28.700Z,0.00
2018-04-19T03:36:28.593Z,0.00
2018-04-19T03:37:28.509Z,0.00
2018-04-19T03:38:28.431Z,0.00
2018-04-19T03:39:28.358Z,0.00
2018-04-19T03:40:28.275Z,0.00
2018-04-19T03:41:28.200Z,0.00
2018-04-19T03:42:28.136Z,0.00
2018-04-19T03:43:28.040Z,0.00
2018-04-19T03:44:27.972Z,0.00
2018-04-19T03:45:27.887Z,0.00
2018-04-19T03:46:27.810Z,4.00
2018-04-19T03:47:27.738Z,0.00
2018-04-19T03:48:27.656Z,0.00
2018-04-19T03:49:27.575Z,4.00
2018-04-19T03:50:27.509Z,0.00
2018-04-19T03:51:27.419Z,4.00
2018-04-19T03:52:27.341Z,4.00
2018-04-19T03:53:27.264Z,8.00
2018-04-19T03:54:27.184Z,8.00
2018-04-19T03:55:27.108Z,8.00
2018-04-19T03:56:27.032Z,8.00
2018-04-19T03:57:26.951Z,8.00
2018-04-19T03:58:26.873Z,16.00
2018-04-19T03:59:26.795Z,16.00
2018-04-19T04:00:26.717Z,20.00
2018-04-19T04:01:26.642Z,24.00
2018-04-19T04:02:26.561Z,28.00
2018-04-19T04:03:26.483Z,32.00
2018-04-19T04:04:26.412Z,40.00
2018-04-19T04:05:26.328Z,44.00
2018-04-19T04:06:26.250Z,48.00
2018-04-19T04:07:26.172Z,56.00
2018-04-19T04:08:26.095Z,60.00
2018-04-19T04:09:26.023Z,72.00
2018-04-19T04:10:25.941Z,80.00
2018-04-19T04:11:25.866Z,88.00
2018-04-19T04:12:25.784Z,100.00
2018-04-19T04:13:25.707Z,112.00
2018-04-19T04:14:25.642Z,116.00
2018-04-19T04:15:25.553Z,132.00
2018-04-19T04:16:25.536Z,144.00
2018-04-19T04:17:25.397Z,152.00
2018-04-19T04:18:25.315Z,164.00
2018-04-19T04:19:25.236Z,180.00
2018-04-19T04:20:25.169Z,192.00
2018-04-19T04:21:25.087Z,208.00
2018-04-19T04:22:25.003Z,220.00
2018-04-19T04:23:24.928Z,232.00
2018-04-19T04:24:24.857Z,248.00
2018-04-19T04:25:24.769Z,264.00
2018-04-19T04:26:24.692Z,280.00
2018-04-19T04:27:24.615Z,296.00
2018-04-19T04:28:24.536Z,308.00
2018-04-19T04:29:24.476Z,328.00
2018-04-19T04:30:24.379Z,340.00
2018-04-19T04:31:24.300Z,360.00
2018-04-19T04:32:24.267Z,372.00
2018-04-19T04:33:24.144Z,392.00
2018-04-19T04:34:24.067Z,408.00
2018-04-19T04:35:24.018Z,424.00
2018-04-19T04:36:23.924Z,436.00
2018-04-19T04:37:23.833Z,456.00
2018-04-19T04:38:23.761Z,472.00
2018-04-19T04:39:23.676Z,488.00
2018-04-19T04:40:23.597Z,504.00
2018-04-19T04:41:23.519Z,524.00
2018-04-19T04:42:23.442Z,536.00
2018-04-19T04:43:23.364Z,556.00
2018-04-19T04:44:23.286Z,572.00
2018-04-19T04:45:23.206Z,588.00
2018-04-19T04:46:23.129Z,604.00
2018-04-19T04:47:23.052Z,624.00
2018-04-19T04:48:22.975Z,644.00
2018-04-19T04:49:22.895Z,660.00
2018-04-19T04:50:22.815Z,676.00
2018-04-19T04:51:22.739Z,692.00
2018-04-19T04:52:22.661Z,704.00
2018-04-19T04:53:22.581Z,720.00
2018-04-19T04:54:22.502Z,736.00
2018-04-19T04:55:22.429Z,752.00
2018-04-19T04:56:22.361Z,768.00
2018-04-19T04:57:22.273Z,784.00
2018-04-19T04:58:22.191Z,800.00
2018-04-19T04:59:22.111Z,820.00
2018-04-19T05:00:22.076Z,836.00
2018-04-19T05:01:21.962Z,852.00
2018-04-19T05:02:21.881Z,864.00
2018-04-19T05:03:21.800Z,884.00
2018-04-19T05:04:21.724Z,896.00
2018-04-19T05:05:21.656Z,912.00
2018-04-19T05:06:21.564Z,928.00
2018-04-19T05:07:21.490Z,944.00
2018-04-19T05:08:21.410Z,960.00
2018-04-19T05:09:21.332Z,976.00
2018-04-19T05:10:21.318Z,996.00
2018-04-19T05:11:21.190Z,1012.00
2018-04-19T05:12:21.102Z,1032.00
2018-04-19T05:13:21.019Z,1048.00
2018-04-19T05:14:20.942Z,1068.00
2018-04-19T05:15:20.865Z,1084.00
2018-04-19T05:16:20.788Z,1100.00
2018-04-19T05:17:20.708Z,1124.00
2018-04-19T05:18:20.642Z,1144.00
2018-04-19T05:19:20.552Z,1164.00
2018-04-19T05:20:20.528Z,1188.00
2018-04-19T05:21:20.404Z,1128.00
2018-04-19T05:22:20.322Z,1196.00
2018-04-19T05:23:20.242Z,1208.00
2018-04-19T05:24:20.164Z,1240.00
2018-04-19T05:25:20.099Z,1256.00
2018-04-19T05:26:20.016Z,1276.00
2018-04-19T05:27:19.931Z,1296.00
2018-04-19T05:28:19.857Z,1308.00
2018-04-19T05:29:19.819Z,1332.00
2018-04-19T05:30:19.701Z,1356.00
2018-04-19T05:31:19.621Z,1376.00
2018-04-19T05:32:19.545Z,1380.00
2018-04-19T05:33:19.465Z,1404.00
2018-04-19T05:34:19.387Z,1420.00
2018-04-19T05:35:19.317Z,1436.00
2018-04-19T05:36:19.232Z,1456.00
2018-04-19T05:37:19.154Z,1476.00
2018-04-19T05:38:19.077Z,1492.00
2018-04-19T05:39:18.997Z,1508.00
2018-04-19T05:40:18.926Z,1528.00
2018-04-19T05:41:18.843Z,1544.00
2018-04-19T05:42:18.767Z,1564.00
2018-04-19T05:43:18.699Z,1580.00
2018-04-19T05:44:18.610Z,1596.00
2018-04-19T05:45:18.535Z,1616.00
2018-04-19T05:46:18.462Z,1632.00
2018-04-19T05:47:18.379Z,1648.00
2018-04-19T05:48:18.304Z,1660.00
2018-04-19T05:49:18.229Z,1680.00
2018-04-19T05:50:18.151Z,1700.00
2018-04-19T05:51:18.073Z,1716.00
2018-04-19T05:52:18.037Z,1732.00
2018-04-19T05:53:17.916Z,1752.00
2018-04-19T05:54:17.837Z,1764.00
2018-04-19T05:55:17.777Z,1780.00
2018-04-19T05:56:17.684Z,1796.00
2018-04-19T05:57:17.610Z,1812.00
2018-04-19T05:58:17.529Z,1828.00
2018-04-19T05:59:17.451Z,1844.00
2018-04-19T06:00:17.375Z,1860.00
2018-04-19T06:01:17.341Z,1872.00
2018-04-19T06:02:17.219Z,1888.00
2018-04-19T06:03:17.143Z,1900.00
2018-04-19T06:04:17.068Z,1916.00
2018-04-19T06:05:16.989Z,1928.00
2018-04-19T06:06:16.913Z,1940.00
2018-04-19T06:07:16.841Z,1952.00
2018-04-19T06:08:16.758Z,1968.00
2018-04-19T06:09:16.682Z,1984.00
2018-04-19T06:10:16.603Z,1996.00
2018-04-19T06:11:16.525Z,2012.00
2018-04-19T06:12:16.457Z,2028.00
2018-04-19T06:13:16.372Z,2036.00
2018-04-19T06:14:16.297Z,2056.00
2018-04-19T06:15:16.268Z,2072.00
2018-04-19T06:16:16.149Z,2084.00
2018-04-19T06:17:16.094Z,2096.00
2018-04-19T06:18:15.988Z,2108.00
2018-04-19T06:19:15.924Z,2112.00
2018-04-19T06:20:15.870Z,2120.00
2018-04-19T06:21:15.756Z,2128.00
2018-04-19T06:22:15.680Z,2136.00
2018-04-19T06:23:15.602Z,2148.00
2018-04-19T06:24:15.530Z,2152.00
2018-04-19T06:25:15.450Z,2160.00
2018-04-19T06:26:15.374Z,2172.00
2018-04-19T06:27:15.297Z,2176.00
2018-04-19T06:28:15.221Z,2188.00
2018-04-19T06:29:15.143Z,2196.00
2018-04-19T06:30:15.071Z,2208.00
2018-04-19T06:31:14.988Z,2212.00
2018-04-19T06:32:14.914Z,2224.00
2018-04-19T06:33:14.838Z,2232.00
2018-04-19T06:34:14.761Z,2240.00
2018-04-19T06:35:14.701Z,2248.00
2018-04-19T06:36:14.609Z,2256.00
2018-04-19T06:37:14.532Z,2264.00
2018-04-19T06:38:14.459Z,2272.00
2018-04-19T06:39:14.394Z,2288.00
2018-04-19T06:40:14.309Z,2296.00
2018-04-19T06:41:14.227Z,2308.00
2018-04-19T06:42:14.153Z,2312.00
2018-04-19T06:43:14.103Z,2324.00
2018-04-19T06:44:13.998Z,2336.00
2018-04-19T06:45:13.924Z,2348.00
2018-04-19T06:46:13.849Z,2356.00
2018-04-19T06:47:13.769Z,2368.00
2018-04-19T06:48:13.740Z,2376.00
2018-04-19T06:49:13.617Z,2380.00
2018-04-19T06:50:13.545Z,2392.00
2018-04-19T06:51:13.504Z,2408.00
2018-04-19T06:52:13.391Z,2416.00
2018-04-19T06:53:13.314Z,2424.00
2018-04-19T06:54:13.250Z,2436.00
2018-04-19T06:55:13.168Z,2448.00
2018-04-19T06:56:13.087Z,2456.00
2018-04-19T06:57:13.011Z,2468.00
2018-04-19T06:58:12.935Z,2476.00
2018-04-19T06:59:12.862Z,2484.00
2018-04-19T07:00:12.786Z,2488.00
2018-04-19T07:01:12.718Z,2500.00
2018-04-19T07:02:12.634Z,2500.00
2018-04-19T07:03:12.556Z,2508.00
2018-04-19T07:04:12.485Z,2516.00
2018-04-19T07:05:12.404Z,2524.00
2018-04-19T07:06:12.334Z,2532.00
2018-04-19T07:07:12.256Z,2540.00
2018-04-19T07:08:12.179Z,2548.00
2018-04-19T07:09:12.280Z,2548.00
2018-04-19T07:10:12.055Z,2548.00
2018-04-19T07:11:11.957Z,2552.00
2018-04-19T07:12:11.881Z,2556.00
2018-04-19T07:13:11.803Z,2552.00
2018-04-19T07:14:11.730Z,2560.00
2018-04-19T07:15:11.673Z,2560.00
2018-04-19T07:16:11.583Z,2568.00
2018-04-19T07:17:11.505Z,2576.00
2018-04-19T07:18:11.440Z,2580.00
2018-04-19T07:19:11.354Z,2588.00
2018-04-19T07:20:11.314Z,2596.00
2018-04-19T07:21:11.202Z,2604.00
2018-04-19T07:22:11.129Z,2608.00
2018-04-19T07:23:11.053Z,2620.00
2018-04-19T07:24:11.020Z,2628.00
2018-04-19T07:25:10.904Z,2628.00
2018-04-19T07:26:10.826Z,2632.00
2018-04-19T07:27:10.752Z,2640.00
2018-04-19T07:28:10.679Z,2652.00
2018-04-19T07:29:10.605Z,2660.00
2018-04-19T07:30:10.533Z,2664.00
2018-04-19T07:31:10.454Z,2664.00
2018-04-19T07:32:10.428Z,2664.00
2018-04-19T07:33:10.302Z,2656.00
2018-04-19T07:34:10.228Z,2636.00
2018-04-19T07:35:10.157Z,2628.00
2018-04-19T07:36:10.076Z,2628.00
2018-04-19T07:37:10.006Z,2696.00
2018-04-19T07:38:09.935Z,2708.00
2018-04-19T07:39:09.854Z,2716.00
2018-04-19T07:40:09.781Z,2724.00
2018-04-19T07:41:09.706Z,2732.00
2018-04-19T07:42:09.633Z,2736.00
2018-04-19T07:43:09.558Z,2744.00
2018-04-19T07:44:09.483Z,2752.00
2018-04-19T07:45:09.407Z,2764.00
2018-04-19T07:46:09.341Z,2772.00
2018-04-19T07:47:09.258Z,2784.00
2018-04-19T07:48:09.189Z,2796.00
2018-04-19T07:49:09.119Z,2812.00
2018-04-19T07:50:09.039Z,2816.00
2018-04-19T07:51:08.963Z,2828.00
2018-04-19T07:52:08.886Z,2832.00
2018-04-19T07:53:08.812Z,2844.00
2018-04-19T07:54:08.742Z,2848.00
2018-04-19T07:55:08.666Z,2856.00
2018-04-19T07:56:08.591Z,2860.00
2018-04-19T07:57:08.521Z,2876.00
2018-04-19T07:58:08.448Z,2884.00
2018-04-19T07:59:08.389Z,2896.00
2018-04-19T08:00:08.295Z,2900.00
2018-04-19T08:01:08.224Z,2912.00
2018-04-19T08:02:08.149Z,2924.00
2018-04-19T08:03:08.076Z,2936.00
2018-04-19T08:04:08.003Z,2948.00
2018-04-19T08:05:07.950Z,2928.00
2018-04-19T08:06:07.851Z,2964.00
2018-04-19T08:07:07.779Z,2976.00
2018-04-19T08:08:07.707Z,2980.00
2018-04-19T08:09:07.634Z,2992.00
2018-04-19T08:10:07.598Z,2996.00
2018-04-19T08:11:07.487Z,3008.00
2018-04-19T08:12:07.416Z,3012.00
2018-04-19T08:13:07.336Z,3020.00
2018-04-19T08:14:07.264Z,3028.00
2018-04-19T08:15:07.194Z,3036.00
2018-04-19T08:16:07.118Z,3048.00
2018-04-19T08:17:07.043Z,3060.00
2018-04-19T08:18:06.975Z,3064.00
2018-04-19T08:19:06.960Z,3080.00
2018-04-19T08:20:06.837Z,3088.00
2018-04-19T08:21:06.756Z,3096.00
2018-04-19T08:22:06.675Z,3104.00
2018-04-19T08:23:06.600Z,3120.00
2018-04-19T08:24:06.548Z,3132.00
2018-04-19T08:25:06.454Z,3140.00
2018-04-19T08:26:06.385Z,3144.00
2018-04-19T08:27:06.400Z,3152.00
2018-04-19T08:28:06.246Z,3160.00
2018-04-19T08:29:06.210Z,3168.00
2018-04-19T08:30:06.115Z,3172.00
2018-04-19T08:31:06.015Z,3188.00
2018-04-19T08:32:05.941Z,3204.00
2018-04-19T08:33:05.871Z,3216.00
2018-04-19T08:34:05.802Z,3228.00
2018-04-19T08:35:05.723Z,3236.00
2018-04-19T08:36:05.651Z,3244.00
2018-04-19T08:37:05.580Z,3260.00
2018-04-19T08:38:05.503Z,3264.00
2018-04-19T08:39:05.429Z,3268.00
2018-04-19T08:40:05.354Z,3268.00
2018-04-19T08:41:05.294Z,3260.00
2018-04-19T08:42:05.226Z,3272.00
2018-04-19T08:43:05.136Z,3280.00
2018-04-19T08:44:05.073Z,3288.00
2018-04-19T08:45:05.000Z,3280.00
2018-04-19T08:46:04.930Z,3296.00
2018-04-19T08:47:04.846Z,3304.00
2018-04-19T08:48:04.783Z,3316.00
2018-04-19T08:49:04.705Z,3320.00
2018-04-19T08:50:04.714Z,3324.00
2018-04-19T08:51:04.560Z,3340.00
2018-04-19T08:52:04.481Z,3348.00
2018-04-19T08:53:04.418Z,3356.00
2018-04-19T08:54:04.337Z,3360.00
2018-04-19T08:55:04.268Z,3416.00
2018-04-19T08:56:04.194Z,3384.00
2018-04-19T08:57:04.121Z,3404.00
2018-04-19T08:58:04.049Z,3400.00
2018-04-19T08:59:03.976Z,3400.00
2018-04-19T09:00:03.901Z,3392.00
2018-04-19T09:01:03.829Z,3420.00
2018-04-19T09:02:03.760Z,3428.00
2018-04-19T09:03:03.685Z,3436.00
2018-04-19T09:04:03.612Z,3456.00
2018-04-19T09:05:03.541Z,3476.00
2018-04-19T09:06:03.469Z,3468.00
2018-04-19T09:07:03.395Z,3484.00
2018-04-19T09:08:03.339Z,3496.00
2018-04-19T09:09:03.256Z,3512.00
2018-04-19T09:10:03.180Z,3528.00
2018-04-19T09:11:03.105Z,3536.00
2018-04-19T09:12:03.035Z,3560.00
2018-04-19T09:13:02.965Z,3560.00
2018-04-19T09:14:02.891Z,3580.00
2018-04-19T09:15:02.820Z,3576.00
2018-04-19T09:16:02.744Z,3584.00
2018-04-19T09:17:02.676Z,3584.00
2018-04-19T09:18:02.603Z,3596.00
2018-04-19T09:19:02.531Z,3604.00
2018-04-19T09:20:02.459Z,3628.00
2018-04-19T09:21:02.385Z,3636.00
2018-04-19T09:22:02.315Z,3636.00
2018-04-19T09:23:02.242Z,3656.00
2018-04-19T09:24:02.175Z,3660.00
2018-04-19T09:25:02.101Z,3668.00
2018-04-19T09:26:02.026Z,3684.00
2018-04-19T09:27:01.958Z,3700.00
2018-04-19T09:28:01.884Z,3704.00
2018-04-19T09:29:01.811Z,3712.00
2018-04-19T09:30:01.738Z,3720.00
2018-04-19T09:31:01.668Z,3736.00
2018-04-19T09:32:01.597Z,3744.00
2018-04-19T09:33:01.522Z,3756.00
2018-04-19T09:34:01.452Z,3772.00
2018-04-19T09:35:01.379Z,3776.00
2018-04-19T09:36:01.309Z,3780.00
2018-04-19T09:37:01.252Z,3788.00
2018-04-19T09:38:01.166Z,3800.00
2018-04-19T09:39:01.091Z,3820.00
2018-04-19T09:40:01.021Z,3828.00
2018-04-19T09:41:01.003Z,3848.00
2018-04-19T09:42:00.879Z,3872.00
2018-04-19T09:43:00.808Z,3904.00
2018-04-19T09:44:00.734Z,3908.00
2018-04-19T09:45:00.701Z,3912.00
2018-04-19T09:46:00.593Z,3944.00
2018-04-19T09:47:00.520Z,3976.00
2018-04-19T09:48:00.454Z,3980.00
2018-04-19T09:49:00.376Z,4020.00
2018-04-19T09:50:00.313Z,4048.00
2018-04-19T09:51:00.237Z,4052.00
2018-04-19T09:52:00.193Z,4084.00
2018-04-19T09:53:00.093Z,4108.00
2018-04-19T09:54:00.116Z,4152.00
2018-04-19T09:54:59.985Z,4180.00
2018-04-19T09:55:59.885Z,4224.00
2018-04-19T09:56:59.807Z,4248.00
2018-04-19T09:57:59.735Z,4292.00
2018-04-19T09:58:59.662Z,4312.00
2018-04-19T09:59:59.590Z,4332.00
2018-04-19T10:00:59.523Z,4356.00
2018-04-19T10:01:59.449Z,4380.00
2018-04-19T10:02:59.380Z,4408.00
2018-04-19T10:03:59.306Z,4464.00
2018-04-19T10:04:59.237Z,4500.00
2018-04-19T10:05:59.169Z,4516.00
2018-04-19T10:06:59.105Z,4560.00
2018-04-19T10:07:59.022Z,4592.00
2018-04-19T10:08:58.955Z,4616.00
2018-04-19T10:09:58.883Z,4652.00
2018-04-19T10:10:58.813Z,4692.00
2018-04-19T10:11:58.781Z,4728.00
2018-04-19T10:12:58.670Z,4788.00
2018-04-19T10:13:58.598Z,4844.00
2018-04-19T10:14:58.527Z,4900.00
2018-04-19T10:15:58.524Z,4984.00
2018-04-19T10:16:58.386Z,5036.00
2018-04-19T10:17:58.317Z,5092.00
2018-04-19T10:18:58.247Z,5128.00
2018-04-19T10:19:58.175Z,5156.00
2018-04-19T10:20:58.108Z,5168.00
2018-04-19T10:21:58.034Z,5204.00
2018-04-19T10:22:57.971Z,5248.00
2018-04-19T10:23:57.898Z,5292.00
2018-04-19T10:24:57.823Z,5328.00
2018-04-19T10:25:57.760Z,5332.00
2018-04-19T10:26:57.683Z,5392.00
2018-04-19T10:27:57.613Z,5408.00
2018-04-19T10:28:57.542Z,5444.00
2018-04-19T10:29:57.473Z,5496.00
2018-04-19T10:30:57.408Z,5540.00
2018-04-19T10:31:57.333Z,5556.00
2018-04-19T10:32:57.261Z,5600.00
2018-04-19T10:33:57.197Z,5652.00
2018-04-19T10:34:57.125Z,5676.00
2018-04-19T10:35:57.053Z,5696.00
2018-04-19T10:36:56.981Z,5724.00
2018-04-19T10:37:56.912Z,5760.00
2018-04-19T10:38:56.839Z,5792.00
2018-04-19T10:39:56.773Z,5824.00
2018-04-19T10:40:56.713Z,5880.00
2018-04-19T10:41:56.633Z,5904.00
2018-04-19T10:42:56.560Z,5940.00
2018-04-19T10:43:56.490Z,5952.00
2018-04-19T10:44:56.421Z,5988.00
2018-04-19T10:45:56.374Z,6016.00
2018-04-19T10:46:56.283Z,6068.00
2018-04-19T10:47:56.217Z,6108.00
2018-04-19T10:48:56.155Z,6140.00
2018-04-19T10:49:56.076Z,6168.00
2018-04-19T10:50:56.003Z,6216.00
2018-04-19T10:51:55.940Z,6208.00
2018-04-19T10:52:55.868Z,6264.00
2018-04-19T10:53:55.799Z,6320.00
2018-04-19T10:54:55.746Z,6352.00
2018-04-19T10:55:55.659Z,6420.00
2018-04-19T10:56:55.591Z,6424.00
2018-04-19T10:57:55.520Z,6416.00
2018-04-19T10:58:55.464Z,6456.00
2018-04-19T10:59:55.389Z,6476.00
2018-04-19T11:00:55.339Z,6480.00
2018-04-19T11:01:55.245Z,6536.00
2018-04-19T11:02:55.222Z,6568.00
2018-04-19T11:03:55.108Z,6628.00
2018-04-19T11:04:55.036Z,6660.00
2018-04-19T11:05:54.970Z,6664.00
2018-04-19T11:06:54.900Z,6688.00
2018-04-19T11:07:54.832Z,6744.00
2018-04-19T11:08:54.761Z,6788.00
2018-04-19T11:09:54.697Z,6836.00
2018-04-19T11:10:54.637Z,6872.00
2018-04-19T11:11:54.555Z,6892.00
2018-04-19T11:12:54.494Z,6912.00
2018-04-19T11:13:54.421Z,6968.00
2018-04-19T11:14:54.352Z,7012.00
2018-04-19T11:15:54.300Z,7016.00
2018-04-19T11:16:54.211Z,7052.00
2018-04-19T11:17:54.146Z,7084.00
2018-04-19T11:18:54.087Z,7116.00
2018-04-19T11:19:54.008Z,7156.00
2018-04-19T11:20:53.950Z,7212.00
2018-04-19T11:21:53.871Z,7244.00
2018-04-19T11:22:53.817Z,7260.00
2018-04-19T11:23:53.735Z,7320.00
2018-04-19T11:24:53.667Z,7364.00
2018-04-19T11:25:53.723Z,7380.00
2018-04-19T11:26:53.530Z,7392.00
2018-04-19T11:27:53.462Z,7408.00
2018-04-19T11:28:53.394Z,7440.00
2018-04-19T11:29:53.330Z,7484.00
2018-04-19T11:30:53.263Z,7508.00
2018-04-19T11:31:53.193Z,7524.00
2018-04-19T11:32:53.127Z,7576.00
2018-04-19T11:33:53.058Z,7612.00
2018-04-19T11:34:52.989Z,7616.00
2018-04-19T11:35:52.924Z,7632.00
2018-04-19T11:36:52.856Z,7652.00
2018-04-19T11:37:52.785Z,7684.00
2018-04-19T11:38:52.716Z,7740.00
2018-04-19T11:39:52.652Z,7776.00
2018-04-19T11:40:52.595Z,7796.00
2018-04-19T11:41:52.519Z,7836.00
2018-04-19T11:42:52.452Z,7884.00
2018-04-19T11:43:52.394Z,7924.00
2018-04-19T11:44:52.314Z,7956.00
2018-04-19T11:45:52.249Z,8004.00
2018-04-19T11:46:52.178Z,8064.00
2018-04-19T11:47:52.110Z,8088.00
2018-04-19T11:48:52.047Z,8120.00
2018-04-19T11:49:51.979Z,8176.00
2018-04-19T11:50:51.922Z,8232.00
2018-04-19T11:51:51.844Z,8268.00
2018-04-19T11:52:51.783Z,8336.00
2018-04-19T11:53:51.708Z,8372.00
2018-04-19T11:54:51.643Z,8412.00
2018-04-19T11:55:51.574Z,8452.00
2018-04-19T11:56:51.512Z,8496.00
2018-04-19T11:57:51.442Z,8564.00
2018-04-19T11:58:51.377Z,8592.00
2018-04-19T11:59:51.314Z,8648.00
2018-04-19T12:00:51.243Z,8680.00
2018-04-19T12:01:51.180Z,8736.00
2018-04-19T12:02:51.114Z,8784.00
2018-04-19T12:03:51.048Z,8816.00
2018-04-19T12:04:50.978Z,8844.00
2018-04-19T12:05:50.917Z,8936.00
2018-04-19T12:06:50.844Z,9172.00
2018-04-19T12:07:50.782Z,9604.00
2018-04-19T12:08:50.736Z,11816.00
2018-04-19T12:09:50.651Z,35936.00
2018-04-19T12:10:50.588Z,70624.00
2018-04-19T12:11:50.522Z,92640.00
2018-04-19T12:12:50.455Z,88896.00
2018-04-19T12:13:50.391Z,90080.00
2018-04-19T12:14:50.339Z,91648.00
2018-04-19T12:15:50.279Z,88160.00
2018-04-19T12:16:50.205Z,90720.00
2018-04-19T12:17:50.140Z,86880.00
2018-04-19T12:18:50.079Z,87456.00
2018-04-19T12:19:50.022Z,87104.00
2018-04-19T12:20:49.966Z,85856.00
2018-04-19T12:21:49.894Z,83680.00
2018-04-19T12:22:49.837Z,79360.00
2018-04-19T12:23:49.779Z,77472.00
2018-04-19T12:24:49.716Z,78656.00
2018-04-19T12:25:49.664Z,77856.00
2018-04-19T12:26:49.646Z,75456.00
2018-04-19T12:27:49.544Z,72672.00
2018-04-19T12:28:49.491Z,69664.00